CST,Max TemperatureF,Mean TemperatureF,Min TemperatureF,Max Dew PointF,MeanDew PointF,Min DewpointF,Max Humidity, Mean Humidity, Min Humidity, Max Sea Level PressureIn, Mean Sea Level PressureIn, Min Sea Level PressureIn, Max VisibilityMiles, Mean VisibilityMiles, Min VisibilityMiles, Max Wind SpeedMPH, Mean Wind SpeedMPH, Max Gust SpeedMPH,PrecipitationIn, CloudCover, Events, WindDirDegrees
2014-1-1,48,33,18,32,23,16,96,70,35,30.40,30.26,30.04,10,10,9,12,2,,0.00,0,,216
2014-1-2,44,30,16,45,28,10,100,90,68,30.37,30.01,29.83,10,3,0,23,10,30,0.35,8,Fog-Rain-Snow,294
2014-1-3,24,15,6,12,8,2,88,75,53,30.59,30.44,30.31,10,9,1,15,8,22,0.00,2,Snow,351
2014-1-4,46,32,17,39,20,9,86,56,29,30.33,30.23,30.11,10,10,10,14,6,20,0.00,1,,187
2014-1-5,55,39,22,48,38,19,96,86,57,30.13,29.81,29.60,10,5,0,30,12,41,0.27,6,Fog-Rain,211
2014-1-6,21,10,-2,19,1,-10,93,74,55,30.59,30.26,29.94,10,4,0,0,0,,0.00,6,,-1
2014-1-7,13,4,-4,3,-6,-11,80,66,50,30.67,30.56,30.47,10,10,3,8,1,,0.00,1,,214
2014-1-8,36,20,5,27,12,1,92,66,41,30.59,30.53,30.49,10,10,10,10,2,,0.00,1,,208
2014-1-9,45,35,25,39,27,18,89,72,37,30.55,30.44,30.31,10,10,8,10,2,,0.02,5,Rain,166
2014-1-10,57,50,43,53,46,39,93,85,75,30.30,30.13,29.81,10,10,6,17,7,22,0.01,7,Rain,170
2014-1-11,61,48,34,56,47,32,100,86,57,29.98,29.74,29.65,10,6,0,23,11,30,1.32,5,Fog-Rain-Thunderstorm,244
2014-1-12,54,41,28,36,32,28,100,71,39,30.19,30.09,29.97,10,9,3,14,5,18,0.00,0,,212
2014-1-13,52,48,45,46,42,31,100,83,45,30.04,29.89,29.81,10,6,2,22,13,28,0.32,6,Rain,191
2014-1-14,52,44,36,46,37,29,100,83,43,30.04,29.94,29.82,10,7,2,21,6,31,0.12,4,Rain,254
2014-1-15,37,29,21,36,24,17,100,77,48,30.18,30.10,30.00,10,9,2,14,5,,0.00,5,Rain-Snow,303
2014-1-16,41,27,13,30,19,10,92,64,32,30.13,30.00,29.87,10,10,9,17,6,20,0.00,4,,213
2014-1-17,37,29,21,34,25,10,100,84,63,30.17,29.98,29.87,10,5,1,20,10,23,0.01,7,Rain-Snow,263
2014-1-18,41,28,16,23,15,11,86,61,38,30.19,30.05,29.88,10,9,4,15,9,20,0.00,5,Rain,221
2014-1-19,41,36,32,34,28,24,89,72,51,30.13,30.01,29.88,10,10,7,17,10,21,0.00,4,Rain,239
2014-1-20,55,41,27,30,26,24,92,60,34,29.99,29.93,29.83,10,10,9,16,9,,0.00,0,Rain,231
2014-1-21,36,22,8,32,18,-3,96,77,54,30.25,29.99,29.78,10,8,2,22,9,30,0.00,7,Rain,321
2014-1-22,21,11,1,10,2,-3,83,60,42,30.26,30.22,30.14,10,10,10,10,4,,0.00,3,,252
2014-1-23,20,14,5,14,2,-5,77,59,38,30.74,30.52,30.24,10,10,10,18,9,22,0.00,2,,302
2014-1-24,25,12,0,3,-1,-6,85,63,29,30.76,30.55,30.09,10,10,10,17,4,26,0.00,2,,222
2014-1-25,37,29,12,28,16,-3,93,65,28,30.05,29.87,29.78,10,6,0,22,17,38,0.03,5,Fog,237
2014-1-26,56,30,3,32,21,-1,84,55,33,30.05,29.85,29.74,10,10,10,18,7,26,0.00,1,,214
2014-1-27,48,31,14,32,9,-2,70,48,34,30.42,30.18,29.78,10,10,10,16,12,30,0.00,3,,328
2014-1-28,14,9,0,1,-2,-5,79,60,43,30.47,30.42,30.37,10,10,10,12,8,,0.00,3,,20
2014-1-29,23,10,-2,1,-3,-7,87,64,32,30.51,30.46,30.41,10,10,9,5,1,,0.00,0,,226
2014-1-30,43,22,2,10,2,-4,80,44,17,30.40,30.25,30.12,10,10,10,15,4,20,0.00,0,,184
2014-1-31,45,32,18,24,17,11,81,50,30,30.24,30.17,30.09,10,10,10,10,3,,0.00,5,,171